Time;durP1;ratioP1;P1;durP2;ratioP2;P2;SDS_P1;SDS_P2;PMS_P1;PMS_P2;Temp;Humidity;BMP_temperature;BMP_pressure;BME280_temperature;BME280_humidity;BME280_pressure;Samples;Min_cycle;Max_cycle;Signal;HPM_P1;HPM_P2
2021/08/13 00:02:15;;;;;;;2.95;2.20;;;;;;;24.61;45.47;100516.88;4439369;32;33230;-81
2021/08/13 00:04:44;;;;;;;2.87;2.53;;;;;;;24.78;44.95;100521.59;4440241;32;34153;-81
2021/08/13 00:07:11;;;;;;;3.15;2.42;;;;;;;24.73;44.93;100521.16;4442483;32;34586;-82
2021/08/13 00:09:40;;;;;;;3.20;2.17;;;;;;;24.75;44.63;100526.44;4421128;32;33007;-81
2021/08/13 00:12:08;;;;;;;2.67;2.47;;;;;;;24.66;44.59;100520.00;4427363;32;33180;-82
2021/08/13 00:14:36;;;;;;;4.07;2.60;;;;;;;24.85;43.83;100523.75;4440231;32;33522;-81
2021/08/13 00:17:04;;;;;;;3.70;2.95;;;;;;;24.50;45.13;100522.41;4453955;32;33681;-81
2021/08/13 00:19:31;;;;;;;3.30;2.20;;;;;;;24.70;44.64;100526.84;4440319;32;33133;-81
2021/08/13 00:21:59;;;;;;;3.47;2.15;;;;;;;24.47;44.73;100533.47;4426818;32;33117;-81
2021/08/13 00:24:26;;;;;;;3.17;2.10;;;;;;;24.64;44.60;100519.31;4440054;32;34161;-81
2021/08/13 00:26:54;;;;;;;2.78;2.40;;;;;;;24.73;44.40;100523.00;4426777;32;34525;-82
2021/08/13 00:29:22;;;;;;;3.85;2.30;;;;;;;24.85;44.31;100521.03;4451216;32;32537;-81
2021/08/13 00:31:50;;;;;;;2.58;2.17;;;;;;;24.84;43.65;100509.38;4426434;32;33676;-82
2021/08/13 00:34:18;;;;;;;3.08;2.47;;;;;;;24.63;44.43;100523.00;4426708;32;32758;-81
2021/08/13 00:36:45;;;;;;;4.32;2.20;;;;;;;24.67;44.20;100518.16;4439757;32;33965;-81
2021/08/13 00:39:14;;;;;;;4.90;1.90;;;;;;;24.67;44.07;100520.88;4426487;32;33118;-80
2021/08/13 00:41:42;;;;;;;3.55;3.00;;;;;;;24.35;44.77;100521.03;4440199;32;33900;-81
2021/08/13 00:44:10;;;;;;;3.85;2.53;;;;;;;24.65;43.93;100515.63;4424185;32;32239;-80
2021/08/13 00:46:38;;;;;;;2.45;2.25;;;;;;;24.66;43.79;100517.31;4439902;32;34078;-81
2021/08/13 00:49:08;;;;;;;2.87;2.60;;;;;;;24.46;44.42;100505.63;4452719;32;33809;-82
2021/08/13 00:51:36;;;;;;;5.75;2.00;;;;;;;24.57;44.09;100493.00;4440402;32;35743;-81
2021/08/13 00:54:05;;;;;;;4.20;2.40;;;;;;;24.64;43.89;100497.72;4427342;32;32542;-82
2021/08/13 00:56:34;;;;;;;2.85;2.15;;;;;;;24.55;44.07;100500.41;4429171;32;32422;-80
2021/08/13 00:59:03;;;;;;;2.90;2.30;;;;;;;24.51;44.16;100497.97;4452059;32;34185;-81
2021/08/13 01:01:31;;;;;;;2.90;2.22;;;;;;;24.41;44.38;100498.97;4432832;32;34668;-80
2021/08/13 01:04:01;;;;;;;3.50;2.45;;;;;;;24.39;44.71;100499.06;4431631;32;33030;-80
2021/08/13 01:06:30;;;;;;;3.05;2.08;;;;;;;24.41;44.51;100501.66;4429970;32;33048;-80
2021/08/13 01:08:57;;;;;;;5.87;2.40;;;;;;;24.43;44.35;100502.34;4430079;32;34952;-80
2021/08/13 01:12:00;;;;;;;6.55;2.20;;;;;;;24.23;45.11;100499.59;4426765;32;33918;-80
2021/08/13 01:14:36;;;;;;;3.03;1.77;;;;;;;24.43;44.19;100500.50;4409431;32;33123;-80
2021/08/13 01:17:07;;;;;;;3.28;1.80;;;;;;;24.43;44.56;100499.66;4450287;32;33692;-80
2021/08/13 01:19:48;;;;;;;12.60;2.87;;;;;;;24.48;44.34;100500.09;4428456;32;33247;-80
2021/08/13 01:22:24;;;;;;;2.62;2.10;;;;;;;24.17;44.90;100500.12;4432026;32;33883;-80
2021/08/13 01:24:53;;;;;;;3.37;2.53;;;;;;;24.33;44.27;100504.16;4413018;32;33388;-80
2021/08/13 01:27:31;;;;;;;3.60;2.40;;;;;;;24.40;44.12;100502.63;4427896;32;34412;-80
2021/08/13 01:30:06;;;;;;;5.00;2.67;;;;;;;24.18;44.25;100501.00;4425602;32;33953;-80
2021/08/13 01:33:04;;;;;;;3.15;2.42;;;;;;;24.12;44.29;100510.50;4435066;32;33533;-80
2021/08/13 01:35:36;;;;;;;3.45;2.03;;;;;;;24.09;44.36;100508.06;4423365;32;33028;-80
2021/08/13 01:38:08;;;;;;;3.17;2.28;;;;;;;24.16;44.17;100508.34;4411064;32;34380;-80
2021/08/13 01:40:39;;;;;;;3.65;2.33;;;;;;;24.33;43.87;100507.69;4419054;32;33211;-80
2021/08/13 01:43:08;;;;;;;3.55;2.53;;;;;;;23.75;45.13;100507.50;4430862;32;34305;-80
2021/08/13 01:45:36;;;;;;;2.87;2.05;;;;;;;24.18;44.10;100507.25;4422757;32;33494;-80
2021/08/13 01:48:05;;;;;;;3.83;2.75;;;;;;;23.84;44.84;100508.53;4425963;32;33905;-80
2021/08/13 01:50:33;;;;;;;2.87;2.08;;;;;;;23.74;44.86;100503.09;4410035;32;33427;-81
2021/08/13 01:53:02;;;;;;;2.67;2.22;;;;;;;23.82;45.03;100497.00;4425100;32;33359;-80
2021/08/13 01:55:31;;;;;;;4.03;2.08;;;;;;;23.75;45.29;100494.87;4431305;32;34526;-80
2021/08/13 01:58:01;;;;;;;3.62;2.25;;;;;;;23.98;44.49;100510.88;4412468;32;33215;-80
2021/08/13 02:00:29;;;;;;;3.58;2.08;;;;;;;23.99;44.73;100501.78;4423295;32;34292;-81
2021/08/13 02:02:57;;;;;;;4.85;2.47;;;;;;;24.11;44.32;100495.28;4425508;32;33771;-81
2021/08/13 02:05:29;;;;;;;4.00;2.50;;;;;;;23.83;45.19;100494.16;4438896;32;33536;-80
2021/08/13 02:07:58;;;;;;;3.50;2.50;;;;;;;23.89;45.42;100501.75;4439803;32;33871;-81
2021/08/13 02:10:27;;;;;;;4.22;2.37;;;;;;;23.67;45.59;100501.91;4441505;32;33984;-81
2021/08/13 02:12:56;;;;;;;4.37;2.67;;;;;;;23.72;45.32;100507.75;4440972;32;34685;-81
2021/08/13 02:15:24;;;;;;;6.45;2.65;;;;;;;23.70;45.11;100517.84;4428198;32;33019;-81
2021/08/13 02:18:17;;;;;;;4.37;2.08;;;;;;;23.71;45.60;100500.66;4415121;32;33712;-81
2021/08/13 02:20:46;;;;;;;4.28;2.10;;;;;;;23.82;45.30;100510.50;4432805;32;33358;-82
2021/08/13 02:23:18;;;;;;;5.35;2.50;;;;;;;23.98;44.38;100510.88;4410005;32;32577;-82
2021/08/13 02:25:50;;;;;;;4.50;2.85;;;;;;;23.74;44.97;100503.94;4434845;32;33865;-81
2021/08/13 02:28:19;;;;;;;3.10;2.10;;;;;;;23.48;46.12;100522.34;4441357;32;34177;-81
2021/08/13 02:30:46;;;;;;;3.10;2.62;;;;;;;23.88;44.71;100510.81;4428318;32;33688;-82
2021/08/13 02:33:15;;;;;;;3.22;2.20;;;;;;;23.73;44.85;100523.78;4428534;32;33200;-81
2021/08/13 02:35:45;;;;;;;3.47;2.15;;;;;;;23.85;44.37;100515.63;4441270;32;33423;-81
2021/08/13 02:38:22;;;;;;;2.45;2.22;;;;;;;23.73;45.24;100513.00;4427964;32;32939;-82
2021/08/13 02:40:55;;;;;;;3.40;2.20;;;;;;;23.76;44.75;100512.75;4441089;32;34055;-82
2021/08/13 02:43:49;;;;;;;2.58;1.92;;;;;;;23.71;44.81;100522.22;4428631;32;33772;-82
2021/08/13 02:46:19;;;;;;;2.70;2.12;;;;;;;23.87;44.28;100513.62;4430886;32;33491;-81
2021/08/13 02:48:49;;;;;;;3.80;2.97;;;;;;;23.72;44.39;100510.44;4402629;32;33160;-81
2021/08/13 02:51:19;;;;;;;3.28;2.17;;;;;;;23.59;44.71;100517.84;4428480;32;33110;-82
2021/08/13 02:53:48;;;;;;;2.97;2.20;;;;;;;23.51;45.33;100515.84;4428272;32;33313;-81
2021/08/13 02:56:18;;;;;;;3.58;2.30;;;;;;;23.86;44.01;100522.72;4428406;32;33105;-82
2021/08/13 02:58:50;;;;;;;6.80;2.72;;;;;;;23.74;44.46;100522.81;4435858;32;32359;-82
2021/08/13 03:01:21;;;;;;;5.68;2.62;;;;;;;23.57;44.72;100520.69;4438004;32;34147;-82
2021/08/13 03:03:52;;;;;;;4.55;2.62;;;;;;;23.79;44.12;100521.56;4439079;32;34013;-82
2021/08/13 03:06:21;;;;;;;2.42;2.08;;;;;;;23.96;43.70;100519.06;4427743;32;33267;-82
2021/08/13 03:08:50;;;;;;;5.30;2.53;;;;;;;23.88;43.87;100515.34;4440581;32;34020;-81
2021/08/13 03:11:18;;;;;;;7.60;2.20;;;;;;;23.51;44.56;100518.53;4427712;32;34964;-81
2021/08/13 03:13:46;;;;;;;5.87;2.92;;;;;;;23.62;44.47;100521.16;4427130;32;33480;-81
2021/08/13 03:16:14;;;;;;;3.53;2.72;;;;;;;23.82;43.97;100508.66;4433228;32;33391;-81
2021/08/13 03:18:42;;;;;;;4.40;2.45;;;;;;;23.64;44.55;100510.25;4440638;32;34578;-82
2021/08/13 03:21:11;;;;;;;3.80;2.60;;;;;;;23.69;44.08;100510.69;4438951;32;34009;-82
2021/08/13 03:23:39;;;;;;;2.65;2.45;;;;;;;23.59;44.20;100513.31;4440954;32;34230;-83
2021/08/13 03:26:08;;;;;;;4.78;2.58;;;;;;;23.39;44.54;100508.81;4440763;32;33407;-82
2021/08/13 03:28:36;;;;;;;4.50;2.65;;;;;;;23.16;45.31;100503.53;4440639;32;34895;-83
2021/08/13 03:31:04;;;;;;;3.95;2.33;;;;;;;23.67;44.19;100493.81;4440790;32;34085;-82
2021/08/13 03:33:35;;;;;;;2.65;2.30;;;;;;;23.56;44.46;100500.12;4440913;32;35237;-82
2021/08/13 03:36:05;;;;;;;4.12;2.67;;;;;;;23.71;44.10;100506.91;4440808;32;34177;-82
2021/08/13 03:38:34;;;;;;;3.55;2.62;;;;;;;23.62;44.55;100506.81;4424563;32;34266;-82
2021/08/13 03:41:02;;;;;;;3.00;2.08;;;;;;;23.62;45.10;100510.38;4441154;32;34428;-83
2021/08/13 03:43:30;;;;;;;2.62;2.05;;;;;;;23.57;45.00;100517.16;4427521;32;32797;-83
2021/08/13 03:45:58;;;;;;;6.32;2.60;;;;;;;23.57;45.14;100520.69;4440517;32;34145;-83
2021/08/13 03:48:26;;;;;;;3.00;1.90;;;;;;;23.71;44.56;100519.53;4427718;32;33918;-82
2021/08/13 03:50:55;;;;;;;2.53;2.25;;;;;;;23.58;45.52;100525.09;4440019;32;34094;-81
2021/08/13 03:53:23;;;;;;;3.72;2.30;;;;;;;23.89;44.37;100519.78;4439799;32;34868;-81
2021/08/13 03:55:51;;;;;;;4.90;2.97;;;;;;;23.67;45.65;100527.03;4425702;32;32207;-81
2021/08/13 03:58:18;;;;;;;3.55;2.60;;;;;;;23.67;44.88;100521.63;4423646;32;33224;-81
2021/08/13 04:00:46;;;;;;;5.72;1.92;;;;;;;23.64;44.85;100524.63;4439279;32;34026;-81
2021/08/13 04:03:14;;;;;;;2.70;1.98;;;;;;;23.65;45.04;100529.00;4439984;32;33507;-80
2021/08/13 04:05:42;;;;;;;4.03;2.25;;;;;;;23.74;44.67;100528.22;4427189;32;33323;-80
2021/08/13 04:08:10;;;;;;;4.93;2.62;;;;;;;23.65;44.60;100531.72;4427273;32;33677;-80
2021/08/13 04:10:38;;;;;;;3.40;2.20;;;;;;;22.99;46.93;100555.31;4440301;32;34908;-80
2021/08/13 04:13:06;;;;;;;2.78;2.00;;;;;;;23.22;45.69;100546.16;4441743;32;34756;-81
2021/08/13 04:15:34;;;;;;;2.55;2.17;;;;;;;23.13;45.86;100544.22;4440491;32;34257;-80
2021/08/13 04:18:02;;;;;;;4.45;1.90;;;;;;;23.09;45.88;100550.00;4440167;32;33992;-81
2021/08/13 04:20:29;;;;;;;3.65;2.17;;;;;;;23.51;45.50;100553.59;4439812;32;34380;-80
2021/08/13 04:22:57;;;;;;;2.83;2.60;;;;;;;23.45;45.91;100554.09;4440156;32;34100;-80
2021/08/13 04:25:26;;;;;;;3.10;2.60;;;;;;;23.54;45.21;100556.00;4439711;32;33445;-80
2021/08/13 04:27:54;;;;;;;2.62;2.20;;;;;;;23.52;45.93;100558.84;4440125;32;34960;-80
2021/08/13 04:30:22;;;;;;;4.70;2.03;;;;;;;23.62;44.99;100558.87;4439331;32;33847;-81
2021/08/13 04:32:50;;;;;;;6.18;2.10;;;;;;;23.43;46.40;100562.31;4439709;32;33031;-81
2021/08/13 04:35:19;;;;;;;5.82;2.78;;;;;;;23.64;45.55;100570.44;4427054;32;32335;-81
2021/08/13 04:37:47;;;;;;;5.12;2.72;;;;;;;23.36;45.96;100571.03;4427203;32;32948;-80
2021/08/13 04:40:18;;;;;;;2.72;2.00;;;;;;;23.52;46.30;100574.16;4424606;32;33216;-80
2021/08/13 04:42:46;;;;;;;3.25;1.92;;;;;;;23.69;44.20;100576.31;4439627;32;32631;-80
2021/08/13 04:45:14;;;;;;;3.45;2.10;;;;;;;23.69;44.69;100580.81;4439844;32;33704;-81
2021/08/13 04:47:42;;;;;;;2.72;2.50;;;;;;;23.68;44.16;100579.97;4439868;32;33993;-80
2021/08/13 04:50:10;;;;;;;2.75;2.03;;;;;;;23.39;44.50;100568.09;4434715;32;32474;-81
2021/08/13 04:52:46;;;;;;;4.10;2.05;;;;;;;23.28;45.85;100577.09;4426937;32;33219;-81
2021/08/13 04:55:19;;;;;;;3.25;1.83;;;;;;;23.25;44.33;100571.97;4426683;32;33739;-81
2021/08/13 04:57:47;;;;;;;2.17;1.95;;;;;;;23.53;44.09;100565.06;4427585;32;34633;-80
2021/08/13 05:00:16;;;;;;;3.92;1.95;;;;;;;23.55;44.72;100568.50;4437789;32;34013;-80
2021/08/13 05:02:44;;;;;;;2.50;2.30;;;;;;;23.28;45.35;100576.25;4439285;32;34534;-80
2021/08/13 05:05:13;;;;;;;2.45;2.05;;;;;;;23.04;46.90;100580.03;4438400;32;33491;-80
2021/08/13 05:07:40;;;;;;;3.42;2.10;;;;;;;23.43;45.61;100564.16;4426625;32;34724;-81
2021/08/13 05:10:13;;;;;;;2.58;1.98;;;;;;;23.59;44.79;100556.44;4438994;32;34113;-81
2021/08/13 05:12:42;;;;;;;6.30;2.58;;;;;;;23.59;45.07;100561.84;4426500;32;33998;-81
2021/08/13 05:15:11;;;;;;;3.80;2.05;;;;;;;23.41;46.29;100560.75;4426477;32;32433;-81
2021/08/13 05:17:39;;;;;;;6.15;2.28;;;;;;;23.17;46.70;100561.84;4439580;32;34674;-81
2021/08/13 05:20:09;;;;;;;3.90;2.47;;;;;;;23.59;45.41;100569.06;4438133;32;34106;-81
2021/08/13 05:22:38;;;;;;;4.80;2.65;;;;;;;23.46;45.77;100567.44;4427498;32;34720;-81
2021/08/13 05:25:09;;;;;;;5.30;2.25;;;;;;;23.29;46.02;100572.56;4439265;32;32237;-82
2021/08/13 05:27:37;;;;;;;4.37;2.40;;;;;;;23.39;46.31;100577.03;4439328;32;33194;-83
2021/08/13 05:30:06;;;;;;;4.57;2.17;;;;;;;23.88;44.38;100580.06;4426962;32;33935;-82
2021/08/13 05:32:41;;;;;;;6.30;2.45;;;;;;;23.72;44.81;100573.31;4426134;32;33279;-82
2021/08/13 05:35:10;;;;;;;2.70;2.00;;;;;;;23.47;45.24;100573.69;4439439;32;33544;-81
2021/08/13 05:37:38;;;;;;;3.25;2.10;;;;;;;23.86;45.06;100574.81;4438812;32;33758;-81
2021/08/13 05:40:07;;;;;;;6.15;2.72;;;;;;;23.94;44.72;100583.09;4426664;32;35023;-81
2021/08/13 05:42:35;;;;;;;3.53;2.08;;;;;;;23.80;44.72;100571.81;4439561;32;32397;-81
2021/08/13 05:45:04;;;;;;;6.30;2.20;;;;;;;23.76;44.70;100572.06;4440773;32;34113;-81
2021/08/13 05:47:33;;;;;;;2.20;1.80;;;;;;;24.19;43.45;100562.91;4441516;32;34398;-81
2021/08/13 05:50:02;;;;;;;4.25;2.75;;;;;;;24.16;43.29;100557.78;4441574;32;33867;-80
2021/08/13 05:52:31;;;;;;;2.95;2.62;;;;;;;24.49;42.83;100569.28;4441578;32;34057;-80
2021/08/13 05:54:59;;;;;;;5.78;2.90;;;;;;;24.13;43.54;100568.84;4428865;32;33084;-80
2021/08/13 05:57:28;;;;;;;4.65;2.33;;;;;;;24.13;42.49;100574.25;4427174;32;32857;-80
2021/08/13 05:59:55;;;;;;;3.87;2.30;;;;;;;24.35;42.78;100573.19;4437309;32;33200;-81
2021/08/13 06:02:23;;;;;;;3.35;2.30;;;;;;;24.05;41.87;100574.06;4425980;32;33878;-81
2021/08/13 06:04:51;;;;;;;4.55;2.17;;;;;;;24.13;42.10;100570.69;4441333;32;34552;-80
2021/08/13 06:07:19;;;;;;;5.25;2.42;;;;;;;24.16;42.71;100568.56;4410248;32;32960;-81
2021/08/13 06:09:47;;;;;;;5.30;2.20;;;;;;;24.19;43.21;100576.41;4441561;32;34145;-81
2021/08/13 06:12:15;;;;;;;2.58;2.17;;;;;;;23.75;44.08;100581.16;4441122;32;33503;-81
2021/08/13 06:14:42;;;;;;;5.05;2.60;;;;;;;24.18;44.00;100563.91;4441045;32;34073;-81
2021/08/13 06:17:12;;;;;;;2.53;2.33;;;;;;;24.23;42.39;100569.75;4442660;32;33567;-80
2021/08/13 06:19:40;;;;;;;4.28;2.20;;;;;;;24.40;42.82;100573.69;4439596;32;34158;-81
2021/08/13 06:22:08;;;;;;;3.65;2.42;;;;;;;24.72;42.04;100576.16;4440611;32;35034;-81
2021/08/13 06:24:39;;;;;;;4.20;3.03;;;;;;;24.84;41.00;100576.06;4443647;32;33477;-80
2021/08/13 06:27:07;;;;;;;4.03;2.55;;;;;;;24.53;42.04;100576.13;4426721;32;33966;-80
2021/08/13 06:29:37;;;;;;;5.80;3.08;;;;;;;24.51;41.83;100578.12;4453653;32;34480;-80
2021/08/13 06:32:04;;;;;;;4.12;2.78;;;;;;;24.46;41.90;100580.38;4440653;32;32525;-81
2021/08/13 06:34:32;;;;;;;7.03;2.95;;;;;;;24.36;41.82;100579.47;4440498;32;33137;-81
2021/08/13 06:37:00;;;;;;;3.50;1.95;;;;;;;24.75;42.08;100580.44;4427451;32;32785;-81
2021/08/13 06:39:28;;;;;;;6.75;2.70;;;;;;;24.54;42.10;100575.13;4440862;32;34476;-81
2021/08/13 06:42:07;;;;;;;3.50;2.65;;;;;;;24.62;42.00;100574.44;4441957;32;33900;-80
2021/08/13 06:44:35;;;;;;;3.87;2.78;;;;;;;24.68;41.90;100579.28;4440206;32;33158;-81
2021/08/13 06:47:03;;;;;;;4.87;3.08;;;;;;;24.90;42.43;100578.19;4439844;32;32887;-81
2021/08/13 06:49:31;;;;;;;7.75;2.95;;;;;;;24.96;41.64;100578.47;4440572;32;34164;-81
2021/08/13 06:51:59;;;;;;;3.78;2.67;;;;;;;25.21;41.82;100578.94;4438020;32;34145;-82
2021/08/13 06:54:26;;;;;;;2.60;2.40;;;;;;;25.42;41.81;100568.84;4439794;32;33534;-81
2021/08/13 06:56:54;;;;;;;5.85;2.62;;;;;;;25.58;40.79;100575.50;4440448;32;34883;-81
2021/08/13 06:59:22;;;;;;;4.20;2.42;;;;;;;25.53;39.64;100581.34;4440040;32;34497;-81
2021/08/13 07:01:50;;;;;;;4.40;2.97;;;;;;;25.45;40.92;100584.78;4427859;32;34055;-81
2021/08/13 07:04:18;;;;;;;3.95;2.42;;;;;;;25.77;40.02;100581.75;4427142;32;34221;-81
2021/08/13 07:06:46;;;;;;;3.72;2.35;;;;;;;25.82;40.76;100580.47;4449222;32;33178;-81
2021/08/13 07:09:14;;;;;;;4.65;2.40;;;;;;;25.88;40.02;100569.94;4430103;32;34092;-81
2021/08/13 07:11:42;;;;;;;4.00;2.25;;;;;;;25.77;39.43;100573.63;4438486;32;34705;-81
2021/08/13 07:14:09;;;;;;;7.22;2.70;;;;;;;26.00;40.05;100579.56;4434884;32;33409;-81
2021/08/13 07:16:38;;;;;;;4.35;2.08;;;;;;;25.69;39.74;100580.75;4453285;32;34011;-81
2021/08/13 07:19:06;;;;;;;6.40;3.25;;;;;;;26.26;39.63;100582.47;4442229;32;34687;-81
2021/08/13 07:21:34;;;;;;;4.07;2.70;;;;;;;26.33;39.90;100579.16;4425384;32;32430;-81
2021/08/13 07:24:01;;;;;;;4.65;2.97;;;;;;;26.58;39.32;100581.16;4438479;32;34145;-81
2021/08/13 07:26:29;;;;;;;7.45;2.28;;;;;;;26.30;40.33;100592.00;4422706;32;33829;-81
2021/08/13 07:28:57;;;;;;;2.90;2.42;;;;;;;26.43;38.36;100586.25;4439108;32;34781;-81
2021/08/13 07:31:25;;;;;;;8.98;4.70;;;;;;;25.99;40.12;100582.41;4428833;32;33930;-81
2021/08/13 07:33:54;;;;;;;3.00;2.60;;;;;;;26.35;38.86;100582.53;4439204;32;33368;-81
2021/08/13 07:36:25;;;;;;;2.60;2.15;;;;;;;26.09;39.21;100583.22;4439858;32;33581;-81
2021/08/13 07:38:54;;;;;;;3.20;2.47;;;;;;;26.25;41.33;100590.72;4440054;32;33848;-81
2021/08/13 07:41:22;;;;;;;2.22;2.03;;;;;;;26.86;38.16;100586.56;4439664;32;34183;-81
2021/08/13 07:43:50;;;;;;;4.25;2.42;;;;;;;26.84;37.44;100588.59;4438251;32;33232;-81
2021/08/13 07:46:18;;;;;;;3.70;2.47;;;;;;;26.76;37.06;100590.19;4439849;32;34931;-81
2021/08/13 07:48:46;;;;;;;5.22;3.58;;;;;;;26.75;38.29;100593.91;4437527;32;34011;-81
2021/08/13 07:51:14;;;;;;;4.97;2.45;;;;;;;26.80;38.78;100594.31;4438417;32;33544;-81
2021/08/13 07:53:42;;;;;;;3.33;2.37;;;;;;;27.21;37.24;100589.34;4425541;32;33364;-81
2021/08/13 07:56:10;;;;;;;3.40;2.83;;;;;;;27.59;37.78;100587.28;4437841;32;33742;-81
2021/08/13 07:58:38;;;;;;;3.12;2.33;;;;;;;27.11;39.01;100595.81;4426435;32;34523;-81
2021/08/13 08:01:07;;;;;;;2.53;2.03;;;;;;;27.76;36.48;100575.56;4427668;32;34854;-81
2021/08/13 08:03:34;;;;;;;3.62;2.60;;;;;;;28.08;37.18;100580.34;4439308;32;33437;-81
2021/08/13 08:06:05;;;;;;;2.60;2.40;;;;;;;27.55;37.13;100586.75;4450934;32;34609;-81
2021/08/13 08:08:33;;;;;;;3.10;2.20;;;;;;;28.22;35.13;100583.47;4431340;32;34047;-81
2021/08/13 08:11:01;;;;;;;3.70;2.53;;;;;;;28.08;34.87;100591.19;4439158;32;34552;-81
2021/08/13 08:13:28;;;;;;;3.15;2.47;;;;;;;27.73;37.06;100589.47;4433515;32;33828;-82
2021/08/13 08:15:56;;;;;;;3.75;2.33;;;;;;;27.67;38.81;100595.47;4438421;32;33619;-82
2021/08/13 08:18:23;;;;;;;3.08;2.28;;;;;;;28.24;35.07;100601.28;4424802;32;33599;-82
2021/08/13 08:20:51;;;;;;;4.45;2.87;;;;;;;28.47;36.38;100589.87;4426177;32;33978;-81
2021/08/13 08:23:20;;;;;;;7.87;3.42;;;;;;;28.88;34.84;100590.03;4437602;32;33080;-82
2021/08/13 08:25:48;;;;;;;5.18;2.62;;;;;;;28.55;35.00;100593.50;4451221;32;34016;-81
2021/08/13 08:28:15;;;;;;;7.32;2.50;;;;;;;28.75;34.45;100579.63;4425312;32;33983;-80
2021/08/13 08:30:43;;;;;;;12.30;3.17;;;;;;;28.89;34.24;100583.56;4439430;32;34803;-81
2021/08/13 08:33:10;;;;;;;4.37;2.78;;;;;;;28.60;35.33;100582.13;4433494;32;33617;-81
2021/08/13 08:35:38;;;;;;;4.57;2.92;;;;;;;28.47;35.10;100584.44;4452068;32;34618;-81
2021/08/13 08:38:05;;;;;;;2.60;2.40;;;;;;;28.72;35.57;100583.53;4432499;32;33295;-81
2021/08/13 08:40:36;;;;;;;4.43;2.40;;;;;;;28.44;35.43;100576.63;4439228;32;33547;-80
2021/08/13 08:43:06;;;;;;;6.97;2.67;;;;;;;28.46;36.45;100586.31;4438244;32;34073;-80
2021/08/13 08:45:37;;;;;;;3.60;2.15;;;;;;;28.84;36.56;100593.06;4439510;32;34592;-80
2021/08/13 08:48:07;;;;;;;3.60;2.17;;;;;;;28.72;35.40;100594.41;4424821;32;32942;-81
2021/08/13 08:50:38;;;;;;;3.40;2.42;;;;;;;28.99;34.64;100587.00;4433951;32;180110;-80
2021/08/13 08:53:16;;;;;;;5.97;2.30;;;;;;;29.26;35.02;100586.72;4437231;32;31999;-80
2021/08/13 08:55:44;;;;;;;2.03;1.83;;;;;;;29.19;35.03;100595.69;4426659;32;33139;-80
2021/08/13 08:58:12;;;;;;;2.15;1.95;;;;;;;29.26;34.57;100586.72;4439114;32;34417;-81
2021/08/13 09:00:39;;;;;;;5.70;2.67;;;;;;;29.48;34.52;100597.91;4454575;32;34152;-80
2021/08/13 09:03:09;;;;;;;2.87;2.33;;;;;;;29.32;34.25;100591.47;4439860;32;33493;-80
2021/08/13 09:05:37;;;;;;;3.40;2.45;;;;;;;29.29;34.17;100585.50;4426711;32;33917;-80
2021/08/13 09:08:05;;;;;;;4.20;2.42;;;;;;;29.91;34.14;100580.41;4455818;32;34027;-82
2021/08/13 09:10:33;;;;;;;5.15;2.40;;;;;;;29.95;34.05;100587.19;4452877;32;34680;-82
2021/08/13 09:13:05;;;;;;;3.20;2.33;;;;;;;29.78;33.13;100578.22;4426398;32;33494;-82
2021/08/13 09:15:34;;;;;;;;;;;;;;;30.28;32.51;100579.78;4435560;32;34016;-82
2021/08/13 09:18:11;;;;;;;3.70;2.10;;;;;;;30.35;33.89;100577.22;4436801;32;35039;-80
2021/08/13 09:20:43;;;;;;;4.57;2.28;;;;;;;30.26;34.10;100579.13;4438615;32;34917;-80
2021/08/13 09:23:37;;;;;;;7.85;1.90;;;;;;;30.38;32.52;100570.56;4438968;32;33672;-79
2021/08/13 09:26:13;;;;;;;6.40;2.45;;;;;;;30.69;32.32;100573.31;4417949;32;33234;-79
2021/08/13 09:29:01;;;;;;;3.03;2.03;;;;;;;30.22;32.55;100582.38;4441166;32;33738;-80
2021/08/13 09:31:32;;;;;;;3.37;2.15;;;;;;;30.79;31.21;100574.81;4437435;32;33168;-81
2021/08/13 09:34:03;;;;;;;6.18;2.42;;;;;;;30.68;32.14;100579.81;4439124;32;34314;-82
2021/08/13 09:36:33;;;;;;;3.28;2.08;;;;;;;31.03;31.72;100575.69;4451501;32;33722;-81
2021/08/13 09:39:10;;;;;;;3.67;2.15;;;;;;;31.05;30.93;100573.63;4451064;32;34045;-81
2021/08/13 09:41:46;;;;;;;2.53;2.22;;;;;;;31.20;30.70;100573.72;4436928;32;34534;-82
2021/08/13 09:44:25;;;;;;;5.68;2.33;;;;;;;30.65;30.89;100572.81;4423062;32;33456;-81
2021/08/13 09:47:07;;;;;;;4.18;2.17;;;;;;;30.70;31.46;100584.03;4436111;32;33924;-82
2021/08/13 09:49:36;;;;;;;4.53;2.70;;;;;;;31.30;33.23;100583.38;4443526;32;32858;-81
2021/08/13 09:52:18;;;;;;;2.25;1.62;;;;;;;31.52;32.01;100573.44;4425828;32;34499;-82
2021/08/13 09:54:48;;;;;;;4.28;2.62;;;;;;;31.10;32.21;100584.88;4452230;32;34242;-81
2021/08/13 09:57:17;;;;;;;3.78;2.00;;;;;;;31.13;31.11;100579.03;4425289;32;33466;-82
2021/08/13 09:59:59;;;;;;;4.18;2.50;;;;;;;31.82;31.12;100571.66;4424674;32;33099;-82
2021/08/13 10:02:33;;;;;;;4.90;2.50;;;;;;;31.55;31.03;100580.44;4434179;32;33495;-81
2021/08/13 10:05:19;;;;;;;2.97;2.53;;;;;;;31.61;31.66;100568.75;4438646;32;33552;-82
2021/08/13 10:07:54;;;;;;;2.60;1.95;;;;;;;31.77;31.20;100568.63;4426178;32;34389;-81
2021/08/13 10:10:34;;;;;;;3.08;2.58;;;;;;;31.98;31.95;100564.31;4437906;32;33111;-82
2021/08/13 10:13:04;;;;;;;4.80;2.10;;;;;;;32.06;31.86;100562.34;4437583;32;34097;-82
2021/08/13 10:15:36;;;;;;;7.25;2.62;;;;;;;31.99;30.22;100564.12;4439098;32;34323;-81
2021/08/13 10:18:06;;;;;;;7.28;2.45;;;;;;;31.82;32.22;100573.53;4443481;32;33200;-82
2021/08/13 10:20:38;;;;;;;4.68;2.60;;;;;;;31.83;31.49;100564.31;4438055;32;34070;-82
2021/08/13 10:23:06;;;;;;;3.85;2.60;;;;;;;32.08;30.63;100564.88;4436513;32;33220;-82
2021/08/13 10:25:35;;;;;;;4.68;2.40;;;;;;;32.42;30.95;100563.47;4438353;32;34535;-82
2021/08/13 10:28:04;;;;;;;3.70;2.58;;;;;;;32.71;30.16;100554.34;4438840;32;34870;-82
2021/08/13 10:30:32;;;;;;;6.28;2.22;;;;;;;32.34;29.96;100559.78;4428106;32;33786;-82
2021/08/13 10:33:07;;;;;;;3.53;3.00;;;;;;;32.67;29.37;100553.91;4427651;32;34229;-82
2021/08/13 10:35:51;;;;;;;4.32;2.12;;;;;;;32.36;31.01;100557.72;4422812;32;32485;-82
2021/08/13 10:38:19;;;;;;;6.35;2.58;;;;;;;32.95;31.01;100555.91;4445663;32;33666;-82
2021/08/13 10:40:48;;;;;;;3.65;2.30;;;;;;;32.80;30.19;100545.00;4440646;32;33892;-82
2021/08/13 10:43:17;;;;;;;3.90;2.33;;;;;;;32.81;30.51;100539.34;4427837;32;34011;-82
2021/08/13 10:45:47;;;;;;;4.78;2.45;;;;;;;32.96;29.91;100542.06;4427591;32;33441;-82
2021/08/13 10:48:20;;;;;;;4.32;2.30;;;;;;;33.51;30.38;100539.63;4440852;32;34378;-82
2021/08/13 10:50:48;;;;;;;5.37;2.90;;;;;;;32.84;28.84;100533.47;4440571;32;34706;-81
2021/08/13 10:53:34;;;;;;;3.50;2.05;;;;;;;33.25;30.29;100540.22;4439632;32;33854;-82
2021/08/13 10:56:04;;;;;;;2.90;2.50;;;;;;;32.78;30.02;100531.53;4427689;32;32970;-82
2021/08/13 10:58:36;;;;;;;3.72;2.35;;;;;;;32.43;31.79;100537.81;4440714;32;33563;-82
2021/08/13 11:01:07;;;;;;;2.53;2.00;;;;;;;32.49;31.13;100540.66;4440380;32;34232;-82
2021/08/13 11:03:37;;;;;;;2.08;1.87;;;;;;;33.16;29.23;100539.50;4454089;32;33760;-82
2021/08/13 11:06:06;;;;;;;3.78;2.20;;;;;;;33.31;29.73;100529.31;4439927;32;32572;-82
2021/08/13 11:08:39;;;;;;;5.03;2.72;;;;;;;33.04;30.42;100527.38;4440577;32;33917;-82
2021/08/13 11:11:08;;;;;;;4.40;2.47;;;;;;;33.34;29.86;100523.47;4440810;32;34526;-82
2021/08/13 11:13:38;;;;;;;3.92;2.28;;;;;;;33.24;29.42;100522.13;4427380;32;35089;-81
2021/08/13 11:16:25;;;;;;;2.90;1.87;;;;;;;33.56;30.29;100513.31;4427136;32;33455;-82
2021/08/13 11:18:58;;;;;;;5.35;2.40;;;;;;;33.86;28.37;100502.16;4451205;32;34673;-82
2021/08/13 11:21:49;;;;;;;5.25;2.50;;;;;;;33.81;29.85;100501.94;4427050;32;34009;-82
2021/08/13 11:24:22;;;;;;;5.50;2.80;;;;;;;33.82;28.67;100498.97;4434038;32;33990;-82
2021/08/13 11:27:01;;;;;;;6.40;2.80;;;;;;;33.94;30.07;100506.62;4435523;32;33055;-82
2021/08/13 11:31:59;;;;;;;3.10;2.80;;;;;;;33.74;29.93;100492.81;4453803;32;34521;-82
2021/08/13 11:34:46;;;;;;;3.03;2.72;;;;;;;33.50;29.78;100502.34;4441306;32;33862;-82
2021/08/13 11:37:41;;;;;;;4.00;2.45;;;;;;;33.73;28.30;100494.72;4435534;32;34324;-84
2021/08/13 11:40:11;;;;;;;2.90;2.28;;;;;;;33.33;28.78;100502.63;4438698;32;34348;-84
2021/08/13 11:42:47;;;;;;;;;;;;;;;33.75;28.89;100489.03;4426221;32;33919;-84
2021/08/13 11:45:15;;;;;;;2.60;2.17;;;;;;;33.77;31.14;100496.00;4437423;32;33719;-84